createdAt,value
2022-08-25T00:01:58.404Z,9.50
2022-08-25T00:07:05.410Z,12.50
2022-08-25T00:12:12.245Z,13.50
2022-08-25T00:17:19.549Z,13.10
2022-08-25T00:22:25.718Z,12.70
2022-08-25T00:27:31.650Z,11.80
2022-08-25T00:32:37.722Z,13.70
2022-08-25T00:37:43.629Z,14.60
2022-08-25T00:42:49.690Z,11.80
2022-08-25T00:47:56.672Z,14.60
2022-08-25T00:53:07.299Z,9.50
2022-08-25T00:58:16.849Z,10.40
2022-08-25T01:03:31.618Z,12.30
2022-08-25T01:08:41.638Z,12.80
2022-08-25T01:13:53.032Z,12.90
2022-08-25T01:19:00.597Z,14.40
2022-08-25T01:24:09.846Z,17.40
2022-08-25T01:29:21.821Z,17.50
2022-08-25T01:34:30.266Z,16.60
2022-08-25T01:39:36.917Z,24.60
2022-08-25T01:44:45.353Z,17.10
2022-08-25T01:49:51.314Z,19.10
2022-08-25T01:54:57.413Z,14.60
2022-08-25T02:00:04.594Z,14.80
2022-08-25T02:05:20.391Z,17.40
2022-08-25T02:10:29.110Z,17.80
2022-08-25T02:15:35.361Z,17.00
2022-08-25T02:20:41.753Z,22.30
2022-08-25T02:25:47.637Z,18.10
2022-08-25T02:30:58.746Z,26.40
2022-08-25T02:36:08.955Z,15.70
2022-08-25T02:41:17.994Z,21.70
2022-08-25T02:46:25.093Z,20.40
2022-08-25T02:51:32.012Z,21.10
2022-08-25T02:56:38.216Z,23.90
2022-08-25T03:01:44.286Z,20.40
2022-08-25T03:06:50.522Z,22.40
2022-08-25T03:11:56.378Z,21.20
2022-08-25T03:17:02.542Z,22.30
2022-08-25T03:22:08.354Z,19.10
2022-08-25T03:27:14.566Z,19.10
2022-08-25T03:32:20.551Z,23.50
2022-08-25T03:37:26.735Z,24.40
2022-08-25T03:42:32.687Z,21.50
2022-08-25T03:47:40.398Z,21.40
2022-08-25T03:52:50.475Z,27.50
2022-08-25T03:57:57.554Z,31.30
2022-08-25T04:03:03.639Z,22.30
2022-08-25T04:08:09.933Z,26.90
2022-08-25T04:13:15.714Z,24.30
2022-08-25T04:18:21.785Z,25.90
2022-08-25T04:23:27.961Z,25.60
2022-08-25T04:28:33.688Z,32.90
2022-08-25T04:33:40.542Z,25.60
2022-08-25T04:38:48.274Z,29.80
2022-08-25T04:43:57.443Z,32.70
2022-08-25T04:49:04.571Z,30.50
2022-08-25T04:54:13.208Z,28.40
2022-08-25T04:59:19.973Z,29.80
2022-08-25T05:04:28.252Z,25.00
2022-08-25T05:09:37.738Z,36.60
2022-08-25T05:14:43.762Z,27.40
2022-08-25T05:19:49.561Z,37.20
2022-08-25T05:24:55.552Z,35.50
2022-08-25T05:30:01.582Z,33.60
2022-08-25T05:35:08.996Z,33.60
2022-08-25T05:40:15.096Z,24.20
2022-08-25T05:45:21.172Z,31.10
2022-08-25T05:50:27.667Z,33.00
2022-08-25T05:55:33.463Z,32.90
2022-08-25T06:00:40.910Z,38.10
2022-08-25T06:05:47.201Z,32.80
2022-08-25T06:10:54.789Z,28.50
2022-08-25T06:16:03.848Z,33.80
2022-08-25T06:21:14.767Z,33.80
2022-08-25T06:26:21.567Z,22.80
2022-08-25T06:36:32.411Z,36.80
2022-08-25T06:41:39.036Z,30.30
2022-08-25T06:46:45.298Z,33.50
2022-08-25T06:51:51.168Z,22.70
2022-08-25T06:56:57.424Z,28.10
2022-08-25T07:02:06.319Z,28.60
2022-08-25T07:07:12.739Z,27.60
2022-08-25T07:12:18.784Z,26.50
2022-08-25T07:17:24.876Z,29.90
2022-08-25T07:22:30.915Z,26.50
2022-08-25T07:27:36.952Z,26.00
2022-08-25T07:32:43.589Z,32.80
2022-08-25T07:42:58.390Z,26.80
2022-08-25T07:48:09.610Z,21.50
2022-08-25T07:53:17.002Z,26.90
2022-08-25T07:58:22.958Z,23.80
2022-08-25T08:03:45.300Z,25.30
2022-08-25T08:08:57.799Z,25.40
2022-08-25T08:14:05.616Z,20.70
2022-08-25T08:19:11.451Z,26.90
2022-08-25T08:24:40.830Z,29.30
2022-08-25T08:29:43.993Z,22.20
2022-08-25T08:34:51.385Z,23.80
2022-08-25T08:40:01.488Z,21.80
2022-08-25T08:45:24.619Z,21.30
2022-08-25T08:50:37.647Z,19.40
2022-08-25T08:55:52.628Z,22.20
2022-08-25T09:06:13.788Z,22.10
2022-08-25T09:16:01.565Z,18.70
2022-08-25T09:21:16.424Z,14.50
2022-08-25T09:26:36.136Z,16.80
2022-08-25T09:31:45.173Z,17.20
2022-08-25T09:36:53.416Z,17.30
2022-08-25T09:42:00.966Z,14.70
2022-08-25T09:47:15.721Z,14.60
2022-08-25T09:52:36.229Z,9.60
2022-08-25T09:57:56.177Z,11.50
2022-08-25T10:03:10.918Z,7.50
2022-08-25T10:08:32.049Z,10.80
2022-08-25T10:13:44.480Z,9.80
2022-08-25T10:19:03.140Z,9.40
2022-08-25T10:24:11.319Z,10.90
2022-08-25T10:29:32.518Z,10.10
2022-08-25T10:34:46.481Z,10.80
2022-08-25T10:40:11.124Z,8.00
2022-08-25T10:45:41.153Z,10.20
2022-08-25T10:50:51.579Z,7.60
2022-08-25T10:56:07.254Z,14.00
2022-08-25T11:01:28.217Z,5.70
2022-08-25T11:06:43.425Z,10.10
2022-08-25T11:11:57.084Z,10.70
2022-08-25T11:17:10.352Z,8.50
2022-08-25T11:22:23.254Z,11.60
2022-08-25T11:27:37.522Z,9.10
2022-08-25T11:32:51.036Z,10.50
2022-08-25T11:38:16.230Z,6.60
2022-08-25T11:43:40.778Z,9.00
2022-08-25T11:49:02.353Z,12.20
2022-08-25T11:54:21.402Z,15.20
2022-08-25T12:00:02.177Z,6.00
2022-08-25T12:05:52.890Z,11.60
2022-08-25T12:11:02.014Z,6.90
2022-08-25T12:16:37.759Z,7.30
2022-08-25T12:21:45.976Z,10.10
2022-08-25T12:26:58.739Z,9.00
2022-08-25T12:32:18.999Z,13.10
2022-08-25T12:37:27.690Z,10.90
2022-08-25T12:42:37.007Z,9.30
2022-08-25T12:47:47.610Z,6.50
2022-08-25T12:52:56.281Z,9.70
2022-08-25T12:58:04.989Z,7.60
2022-08-25T13:09:38.400Z,5.50
2022-08-25T13:14:50.541Z,5.10
2022-08-25T13:20:18.072Z,5.90
2022-08-25T13:25:32.456Z,9.60
2022-08-25T13:31:32.096Z,5.70
2022-08-25T13:37:06.364Z,8.10
2022-08-25T13:42:17.647Z,6.70
2022-08-25T13:47:45.269Z,5.20
2022-08-25T13:58:24.809Z,7.50
2022-08-25T14:03:41.731Z,6.30
2022-08-25T14:09:14.173Z,8.60
2022-08-25T14:14:47.990Z,9.40
2022-08-25T14:19:57.964Z,12.90
2022-08-25T14:25:30.431Z,7.80
2022-08-25T14:30:43.381Z,9.40
2022-08-25T14:36:08.136Z,9.30
2022-08-25T14:41:28.294Z,6.40
2022-08-25T14:46:50.146Z,8.10
2022-08-25T14:51:56.493Z,12.50
2022-08-25T14:57:04.724Z,10.90
2022-08-25T15:02:19.954Z,8.50
2022-08-25T15:07:51.419Z,12.60
2022-08-25T15:12:58.296Z,7.50
2022-08-25T15:18:05.503Z,6.90
2022-08-25T15:23:12.125Z,7.50
2022-08-25T15:28:20.776Z,9.20
2022-08-25T15:38:32.787Z,8.20
2022-08-25T15:43:39.765Z,11.10
2022-08-25T15:48:46.302Z,8.80
2022-08-25T15:53:52.234Z,4.90
2022-08-25T15:58:58.414Z,8.60
2022-08-25T16:04:04.894Z,7.00
2022-08-25T16:09:10.987Z,7.90
2022-08-25T16:14:17.116Z,6.40
2022-08-25T16:19:22.927Z,8.50
2022-08-25T16:24:28.992Z,6.60
2022-08-25T16:29:37.230Z,5.70
2022-08-25T16:34:44.214Z,4.30
2022-08-25T16:39:55.685Z,8.20
2022-08-25T16:45:02.099Z,13.50
2022-08-25T16:50:11.972Z,4.30
2022-08-25T16:55:18.595Z,6.80
2022-08-25T17:00:26.819Z,9.90
2022-08-25T17:05:34.014Z,4.40
2022-08-25T17:10:42.213Z,7.70
2022-08-25T17:15:52.427Z,6.50
2022-08-25T17:26:14.746Z,7.30
2022-08-25T17:31:21.253Z,9.40
2022-08-25T17:36:27.595Z,8.60
2022-08-25T17:41:33.664Z,6.70
2022-08-25T17:46:47.420Z,10.30
2022-08-25T17:51:53.850Z,11.60
2022-08-25T17:56:59.823Z,8.90
2022-08-25T18:02:06.086Z,7.10
2022-08-25T18:07:13.863Z,5.40
2022-08-25T18:12:19.588Z,7.60
2022-08-25T18:17:25.949Z,9.80
2022-08-25T18:22:32.241Z,17.20
2022-08-25T18:27:39.402Z,8.60
2022-08-25T18:32:45.348Z,7.80
2022-08-25T18:38:10.298Z,12.60
2022-08-25T18:43:17.630Z,6.90
2022-08-25T18:48:26.525Z,8.70
2022-08-25T18:53:37.553Z,10.60
2022-08-25T18:58:56.074Z,11.30
2022-08-25T19:04:02.472Z,8.60
2022-08-25T19:09:08.503Z,7.10
2022-08-25T19:14:15.020Z,8.50
2022-08-25T19:19:24.537Z,10.70
2022-08-25T19:24:31.218Z,10.00
2022-08-25T19:29:37.055Z,9.90
2022-08-25T19:34:47.154Z,6.40
2022-08-25T19:39:57.542Z,7.80
2022-08-25T19:45:05.127Z,14.10
2022-08-25T19:50:16.644Z,10.80
2022-08-25T19:55:25.908Z,7.80
2022-08-25T20:00:34.237Z,13.00
2022-08-25T20:05:43.351Z,9.20
2022-08-25T20:10:49.597Z,6.30
2022-08-25T20:15:58.746Z,8.40
2022-08-25T20:21:05.454Z,10.80
2022-08-25T20:26:11.613Z,12.50
2022-08-25T20:31:17.864Z,12.70
2022-08-25T20:36:25.464Z,7.50
2022-08-25T20:41:31.314Z,11.10
2022-08-25T20:46:37.592Z,9.80
2022-08-25T20:51:44.531Z,7.90
2022-08-25T20:56:57.245Z,7.60
2022-08-25T21:02:14.260Z,12.70
2022-08-25T21:07:23.809Z,9.20
2022-08-25T21:12:41.382Z,8.40
2022-08-25T21:17:54.410Z,10.20
2022-08-25T21:23:02.468Z,11.30
2022-08-25T21:28:09.022Z,11.30
2022-08-25T21:33:15.411Z,8.30
2022-08-25T21:38:29.637Z,9.20
2022-08-25T21:43:35.658Z,11.20
2022-08-25T21:48:46.561Z,8.50
2022-08-25T21:54:09.114Z,12.30
2022-08-25T21:59:17.225Z,9.60
2022-08-25T22:04:23.219Z,10.70
2022-08-25T22:09:30.441Z,9.90
2022-08-25T22:14:38.039Z,12.70
2022-08-25T22:19:45.612Z,7.90
2022-08-25T22:24:52.419Z,10.90
2022-08-25T22:29:59.136Z,11.00
2022-08-25T22:35:07.239Z,10.90
2022-08-25T22:40:38.617Z,10.50
2022-08-25T22:52:52.017Z,12.50
2022-08-25T22:57:58.199Z,13.20
2022-08-25T23:03:04.482Z,21.60
2022-08-25T23:08:13.545Z,18.60
2022-08-25T23:13:33.903Z,16.40
2022-08-25T23:18:43.862Z,18.00
2022-08-25T23:23:50.094Z,16.10
2022-08-25T23:28:56.346Z,17.30
2022-08-25T23:34:02.891Z,17.80
2022-08-25T23:39:09.196Z,19.00
2022-08-25T23:44:17.360Z,14.30
2022-08-25T23:49:25.047Z,18.90
2022-08-25T23:54:31.661Z,18.30
2022-08-25T23:59:38.378Z,17.20
